This is the latest recevied weather packets stored in our database for station/object W5XN. If no packets are shown the sender has not sent any weather packets the latest 1 day(s).
| Time | Temp. | Humidity | Pressure | Rain* | Wind** | Luminosity | Snow |
|---|---|---|---|---|---|---|---|
| 1778093965 | 24.44° C | 90% | 1011.5 hPa | 0 mm | - | 460 W/m² | - |
| 1778093359 | 23.89° C | 92% | 1011.7 hPa | 0 mm | - | 298 W/m² | - |
| 1778093056 | 23.89° C | 92% | 1011.8 hPa | 0 mm | - | 128 W/m² | - |
| 1778090935 | 24.44° C | 89% | 1011.9 hPa | 0 mm | - | 121 W/m² | - |
| 1778090631 | 24.44° C | 90% | 1011.9 hPa | 0 mm | - | 237 W/m² | - |
| 1778089419 | 24.44° C | 91% | 1012.1 hPa | 0 mm | - | 164 W/m² | - |
| 1778088813 | 23.89° C | 91% | 1012.1 hPa | 0 mm | - | 131 W/m² | - |
| 1778087904 | 24.44° C | 89% | 1012.2 hPa | 0 mm | - | 109 W/m² | - |
| 1778087299 | 24.44° C | 87% | 1012.1 hPa | 0 mm | - | 92 W/m² | - |
| 1778086694 | 24.44° C | 87% | 1012.2 hPa | 0 mm | - | 238 W/m² | - |
| 1778084267 | 23.89° C | 89% | 1012.2 hPa | 0 mm | - | 295 W/m² | - |
| 1778083662 | 23.33° C | 91% | 1012.4 hPa | 0 mm | - | 234 W/m² | - |
| 1778083057 | 23.33° C | 91% | 1012.3 hPa | 0 mm | - | 213 W/m² | - |
| 1778080107 | 22.22° C | 93% | 1012.4 hPa | 0 mm | - | 139 W/m² | - |
| 1778078591 | 21.67° C | 94% | 1012.4 hPa | 0 mm | - | 64 W/m² | - |
| 1778077986 | 21.67° C | 94% | 1012 hPa | 0 mm | - | 85 W/m² | - |
| 1778077382 | 21.67° C | 94% | 1011.8 hPa | 0 mm | - | 169 W/m² | - |
| 1778077080 | 21.11° C | 95% | 1011.8 hPa | 0 mm | - | 144 W/m² | - |
| 1778076778 | 21.11° C | 94% | 1012.1 hPa | 0 mm | - | 84 W/m² | - |
| 1778076172 | 21.11° C | 95% | 1012.2 hPa | 0 mm | - | 83 W/m² | - |
| 1778075869 | 21.11° C | 95% | 1011.9 hPa | 0 mm | - | 113 W/m² | - |
| 1778075565 | 21.11° C | 95% | 1012.2 hPa | 0 mm | - | 99 W/m² | - |
| 1778075262 | 21.11° C | 95% | 1012.2 hPa | 0 mm | - | 75 W/m² | - |
| 1778074656 | 21.11° C | 95% | 1012.2 hPa | 0 mm | - | 77 W/m² | - |
| 1778073140 | 21.11° C | 95% | 1012.2 hPa | 0 mm | - | 63 W/m² | - |
* Rain latest hour (hover to see other rain measurements)
** Current wind speed in m/s (hover to see current wind gust speed)